Time;durP1;ratioP1;P1;durP2;ratioP2;P2;SDS_P1;SDS_P2;PMS_P1;PMS_P2;Temp;Humidity;BMP_temperature;BMP_pressure;BME280_temperature;BME280_humidity;BME280_pressure;Samples;Min_cycle;Max_cycle;Signal;HPM_P1;HPM_P2
2023/05/03 00:06:00;;;;;;;12.23;10.43;;;3.90;99.90;;;;;;2616215;54;20363;-80
2023/05/03 00:11:52;;;;;;;16.57;11.23;;;3.60;99.90;;;;;;2616354;54;20367;-79
2023/05/03 00:17:40;;;;;;;12.23;10.20;;;3.60;99.90;;;;;;2616176;54;20369;-79
2023/05/03 00:23:28;;;;;;;10.50;9.33;;;3.50;99.90;;;;;;2616888;54;20158;-79
2023/05/03 00:29:17;;;;;;;10.77;9.60;;;3.50;99.90;;;;;;2611174;54;20976;-81
2023/05/03 00:35:06;;;;;;;20.13;9.97;;;3.60;99.90;;;;;;2605085;54;20519;-80
2023/05/03 00:40:54;;;;;;;12.30;10.40;;;3.50;99.90;;;;;;2612615;54;20415;-79
2023/05/03 00:46:41;;;;;;;14.97;9.30;;;3.30;99.90;;;;;;2614039;54;20398;-79
2023/05/03 00:52:30;;;;;;;11.70;9.97;;;3.30;99.90;;;;;;2611054;54;20242;-80
2023/05/03 00:58:17;;;;;;;17.33;9.87;;;3.10;99.90;;;;;;2611947;54;20379;-78
2023/05/03 01:01:33;;;;;;;12.30;9.17;;;3.10;99.90;;;;;;2612549;46;20447;-80
2023/05/03 01:04:02;;;;;;;13.83;10.00;;;3.00;99.90;;;;;;2613635;54;20433;-80
2023/05/03 01:10:16;;;;;;;12.50;8.90;;;3.20;99.90;;;;;;2612696;39;20747;-80
2023/05/03 01:29:11;;;;;;;12.10;8.67;;;2.70;99.90;;;;;;2616841;54;20387;-79
2023/05/03 01:41:25;;;;;;;10.47;9.33;;;2.60;99.90;;;;;;2621250;54;20391;-78
2023/05/03 01:47:14;;;;;;;11.13;9.90;;;2.50;99.90;;;;;;2621999;54;20383;-79
2023/05/03 01:53:02;;;;;;;11.60;10.17;;;2.40;99.90;;;;;;2625296;54;20400;-80
2023/05/03 01:58:50;;;;;;;16.00;10.63;;;2.40;99.90;;;;;;2620484;54;20211;-80
2023/05/03 02:01:33;;;;;;;15.70;11.67;;;2.40;99.90;;;;;;2620174;51;20466;-79
2023/05/03 02:03:59;;;;;;;14.10;10.70;;;2.50;99.90;;;;;;2620720;54;20251;-81
2023/05/03 02:09:47;;;;;;;12.30;10.13;;;2.60;99.90;;;;;;2619168;54;20151;-81
2023/05/03 02:15:35;;;;;;;12.53;10.10;;;2.60;99.90;;;;;;2616627;54;20151;-79
2023/05/03 02:21:23;;;;;;;11.63;10.40;;;2.50;99.90;;;;;;2612480;31;20634;-79
2023/05/03 02:27:11;;;;;;;18.93;11.77;;;2.40;99.90;;;;;;2617064;39;20558;-79
2023/05/03 02:32:59;;;;;;;13.37;10.90;;;2.30;99.90;;;;;;2611258;54;20130;-80
2023/05/03 02:38:47;;;;;;;14.97;11.23;;;2.30;99.90;;;;;;2611975;54;20395;-80
2023/05/03 02:44:34;;;;;;;14.23;11.30;;;2.50;99.90;;;;;;2614345;54;20492;-80
2023/05/03 02:50:22;;;;;;;15.00;12.67;;;2.50;99.90;;;;;;2611265;39;20528;-79
2023/05/03 02:56:10;;;;;;;23.23;12.30;;;2.60;99.90;;;;;;2610563;54;20126;-80
2023/05/03 03:06:00;;;;;;;16.07;12.80;;;2.40;99.90;;;;;;2611286;54;20870;-80
2023/05/03 03:11:50;;;;;;;15.17;12.60;;;2.20;99.90;;;;;;2611029;54;20431;-79
2023/05/03 03:17:38;;;;;;;18.03;12.03;;;2.40;99.90;;;;;;2611232;39;20924;-79
2023/05/03 03:23:26;;;;;;;16.67;11.43;;;2.40;99.90;;;;;;2614037;54;20406;-78
2023/05/03 03:29:13;;;;;;;21.17;13.40;;;2.30;99.90;;;;;;2613849;54;20149;-80
2023/05/03 03:35:01;;;;;;;14.43;11.13;;;2.40;99.90;;;;;;2611488;54;20134;-79
2023/05/03 03:40:49;;;;;;;16.67;11.93;;;2.60;99.90;;;;;;2612629;39;20532;-79
2023/05/03 03:46:37;;;;;;;16.53;11.53;;;2.80;99.90;;;;;;2611889;54;20134;-80
2023/05/03 03:52:25;;;;;;;20.23;11.73;;;3.00;99.90;;;;;;2611828;54;20123;-79
2023/05/03 03:58:13;;;;;;;21.63;12.60;;;2.80;99.90;;;;;;2613241;54;20386;-79
2023/05/03 04:04:16;;;;;;;18.27;14.27;;;2.90;99.90;;;;;;2609912;47;20246;-81
2023/05/03 04:10:04;;;;;;;15.40;12.97;;;3.00;99.90;;;;;;2612447;54;22423;-79
2023/05/03 04:15:54;;;;;;;21.97;16.40;;;3.10;99.90;;;;;;2611664;54;20929;-80
2023/05/03 04:21:41;;;;;;;25.33;15.83;;;3.40;99.90;;;;;;2612781;54;21019;-79
2023/05/03 04:27:29;;;;;;;20.90;15.17;;;3.60;99.90;;;;;;2607927;54;20134;-79
2023/05/03 04:33:16;;;;;;;19.70;14.53;;;3.50;99.90;;;;;;2610305;54;20154;-79
2023/05/03 04:39:05;;;;;;;18.20;13.77;;;3.50;99.90;;;;;;2610224;54;20459;-78
2023/05/03 04:44:52;;;;;;;16.50;13.20;;;3.40;99.90;;;;;;2612602;54;20399;-79
2023/05/03 04:50:40;;;;;;;17.83;12.63;;;3.50;99.90;;;;;;2612605;54;20700;-79
2023/05/03 04:56:28;;;;;;;20.30;11.57;;;3.50;99.90;;;;;;2612573;54;20398;-79
2023/05/03 05:06:08;;;;;;;19.27;13.00;;;3.90;99.90;;;;;;2611102;54;20427;-79
2023/05/03 05:11:58;;;;;;;18.03;14.87;;;4.30;99.90;;;;;;2611936;39;20807;-81
2023/05/03 05:17:46;;;;;;;19.27;14.20;;;4.70;99.90;;;;;;2613051;54;20443;-78
2023/05/03 05:23:35;;;;;;;17.27;13.90;;;5.10;99.90;;;;;;2612944;54;20150;-80
2023/05/03 05:29:23;;;;;;;16.30;14.70;;;5.50;99.90;;;;;;2611900;54;20382;-81
2023/05/03 05:35:11;;;;;;;20.63;15.20;;;6.30;99.90;;;;;;2614121;54;20387;-79
2023/05/03 05:40:58;;;;;;;17.00;15.30;;;7.40;99.90;;;;;;2613246;54;20679;-80
2023/05/03 05:46:48;;;;;;;16.80;15.00;;;8.00;99.90;;;;;;2611511;54;20135;-79
2023/05/03 05:49:51;;;;;;;17.33;15.73;;;8.00;99.90;;;;;;2613859;54;20435;-79
2023/05/03 05:52:19;;;;;;;16.30;14.70;;;8.30;99.90;;;;;;2612931;54;20579;-79
2023/05/03 05:58:08;;;;;;;16.53;15.07;;;8.60;99.90;;;;;;2612796;54;20404;-81
2023/05/03 06:03:56;;;;;;;15.33;13.80;;;8.80;99.90;;;;;;2606188;54;20467;-79
2023/05/03 06:09:43;;;;;;;16.53;14.57;;;8.90;99.90;;;;;;2612197;54;20125;-80
2023/05/03 06:15:31;;;;;;;16.20;14.10;;;9.40;99.90;;;;;;2610821;54;20158;-79
2023/05/03 06:21:20;;;;;;;16.60;15.00;;;9.90;99.90;;;;;;2614096;54;20162;-78
2023/05/03 06:27:08;;;;;;;17.50;16.00;;;9.90;94.60;;;;;;2612118;54;20399;-78
2023/05/03 06:32:55;;;;;;;15.63;14.10;;;10.10;86.90;;;;;;2612756;54;20496;-78
2023/05/03 06:38:43;;;;;;;15.40;14.20;;;10.40;73.00;;;;;;2612779;39;20530;-80
2023/05/03 06:44:31;;;;;;;16.43;14.77;;;10.60;58.40;;;;;;2613262;54;20207;-80
2023/05/03 06:50:21;;;;;;;13.77;12.77;;;11.50;43.20;;;;;;2613504;54;20133;-80
2023/05/03 06:56:08;;;;;;;15.83;14.40;;;11.10;40.20;;;;;;2611745;54;20366;-78
2023/05/03 07:06:03;;;;;;;16.40;15.00;;;11.30;39.40;;;;;;2611542;54;20427;-80
2023/05/03 07:11:50;;;;;;;16.30;15.10;;;11.90;35.10;;;;;;2613615;54;20530;-79
2023/05/03 07:17:38;;;;;;;16.60;15.17;;;12.00;32.30;;;;;;2613065;39;20551;-79
2023/05/03 07:23:26;;;;;;;16.70;15.30;;;11.50;30.60;;;;;;2610645;54;20146;-79
2023/05/03 07:29:13;;;;;;;16.27;15.13;;;12.10;29.40;;;;;;2611493;54;20130;-80
2023/05/03 07:35:02;;;;;;;15.87;14.77;;;12.00;28.60;;;;;;2613625;54;20130;-79
2023/05/03 07:40:49;;;;;;;17.03;15.40;;;12.20;23.50;;;;;;2613885;54;20414;-79
2023/05/03 07:46:37;;;;;;;14.20;13.10;;;12.80;20.30;;;;;;2614105;39;20594;-79
2023/05/03 07:52:25;;;;;;;15.20;14.00;;;12.90;15.60;;;;;;2614913;54;20653;-80
2023/05/03 07:58:13;;;;;;;14.60;13.70;;;13.30;9.30;;;;;;2614108;54;20150;-80
2023/05/03 08:04:18;;;;;;;16.50;14.87;;;13.30;1.30;;;;;;2611915;47;20742;-80
2023/05/03 08:10:07;;;;;;;14.27;13.47;;;13.00;1.00;;;;;;2611517;54;20175;-80
2023/05/03 08:15:55;;;;;;;15.93;15.00;;;13.80;1.00;;;;;;2612300;39;20826;-79
2023/05/03 08:21:42;;;;;;;15.67;14.47;;;13.50;1.00;;;;;;2613789;39;20930;-80
2023/05/03 08:27:32;;;;;;;14.47;13.47;;;14.00;1.00;;;;;;2612521;54;20727;-80
2023/05/03 08:33:20;;;;;;;15.57;14.47;;;13.50;1.00;;;;;;2612820;54;20844;-82
2023/05/03 08:39:10;;;;;;;15.40;14.50;;;14.30;1.00;;;;;;2615218;54;20158;-81
2023/05/03 08:44:58;;;;;;;14.10;13.23;;;14.10;1.00;;;;;;2615008;54;20402;-79
2023/05/03 08:50:50;;;;;;;15.30;14.20;;;14.60;1.00;;;;;;2614133;54;20379;-82
2023/05/03 08:56:42;;;;;;;16.07;14.93;;;13.60;1.00;;;;;;2613978;54;20928;-80
2023/05/03 09:12:44;;;;;;;16.50;15.10;;;14.40;1.00;;;;;;2615151;54;20431;-80
2023/05/03 09:18:32;;;;;;;14.67;13.87;;;15.00;1.00;;;;;;2611766;54;21017;-80
2023/05/03 09:24:21;;;;;;;15.23;14.10;;;13.60;1.00;;;;;;2614852;54;20147;-79
2023/05/03 09:36:46;;;;;;;15.03;14.20;;;14.90;1.00;;;;;;2613830;54;20403;-79
2023/05/03 09:42:35;;;;;;;15.33;14.23;;;15.80;1.00;;;;;;2613253;54;20387;-80
2023/05/03 09:48:25;;;;;;;15.07;14.10;;;14.80;1.00;;;;;;2612993;54;20446;-80
2023/05/03 09:54:14;;;;;;;15.00;14.00;;;15.50;1.00;;;;;;2612294;54;20443;-81
2023/05/03 10:00:03;;;;;;;15.20;14.30;;;15.70;1.00;;;;;;2614796;54;20387;-79
2023/05/03 10:05:51;;;;;;;14.93;13.80;;;16.30;1.00;;;;;;2616359;54;20398;-80
2023/05/03 10:11:45;;;;;;;14.63;13.67;;;14.90;1.00;;;;;;2622631;54;20391;-81
2023/05/03 10:17:39;;;;;;;14.17;13.37;;;16.40;1.00;;;;;;2624687;54;20419;-80
2023/05/03 10:23:28;;;;;;;13.40;12.60;;;15.00;1.00;;;;;;2610774;54;20538;-81
2023/05/03 10:29:34;;;;;;;14.90;14.00;;;16.20;1.00;;;;;;2613880;54;20957;-79
2023/05/03 10:35:26;;;;;;;14.60;13.60;;;16.60;1.00;;;;;;2611495;54;20415;-80
2023/05/03 10:54:36;;;;;;;14.77;13.97;;;16.70;1.00;;;;;;2616127;54;20382;-80
2023/05/03 11:00:31;;;;;;;14.77;13.87;;;16.40;1.00;;;;;;2620034;54;20170;-81
2023/05/03 11:10:32;;;;;;;14.57;13.83;;;16.60;1.00;;;;;;2618551;54;20519;-81
2023/05/03 11:16:20;;;;;;;15.43;14.53;;;17.30;1.00;;;;;;2614101;54;20524;-80
2023/05/03 11:22:07;;;;;;;14.70;13.80;;;16.90;1.00;;;;;;2611539;54;21195;-79
2023/05/03 11:27:54;;;;;;;15.47;14.50;;;17.20;1.00;;;;;;2615878;54;20134;-80
2023/05/03 11:33:42;;;;;;;15.33;14.30;;;17.70;1.00;;;;;;2616383;54;20138;-80
2023/05/03 11:39:32;;;;;;;16.43;15.23;;;16.30;1.00;;;;;;2611620;39;20568;-80
2023/05/03 11:45:25;;;;;;;16.87;15.97;;;17.80;1.00;;;;;;2610072;54;20387;-80
2023/05/03 11:51:13;;;;;;;15.43;14.47;;;17.00;1.00;;;;;;2612414;54;20435;-80
2023/05/03 12:03:37;;;;;;;15.93;15.07;;;17.70;1.00;;;;;;2612820;54;20482;-79
2023/05/03 12:06:04;;;;;;;16.50;15.60;;;18.00;1.00;;;;;;2609877;54;20514;-79
2023/05/03 12:08:31;;;;;;;16.00;15.17;;;18.40;1.00;;;;;;2611728;39;20981;-80
2023/05/03 12:14:20;;;;;;;15.50;14.67;;;18.20;1.00;;;;;;2612117;54;20379;-80
2023/05/03 12:16:53;;;;;;;15.67;14.80;;;18.70;1.00;;;;;;2612557;54;20415;-80
2023/05/03 12:19:29;;;;;;;15.00;14.20;;;18.20;1.00;;;;;;2615152;39;20768;-79
2023/05/03 12:25:17;;;;;;;15.77;14.77;;;18.60;1.00;;;;;;2613453;54;20532;-82
2023/05/03 12:31:04;;;;;;;15.60;14.40;;;18.10;1.00;;;;;;2612909;54;20669;-80
2023/05/03 12:36:53;;;;;;;15.50;14.70;;;18.00;1.00;;;;;;2612732;54;20134;-79
2023/05/03 12:42:41;;;;;;;15.97;15.03;;;18.10;1.00;;;;;;2612629;54;20427;-79
2023/05/03 12:48:30;;;;;;;14.90;14.10;;;18.10;1.00;;;;;;2613081;54;20495;-81
2023/05/03 12:54:19;;;;;;;16.70;15.73;;;18.50;1.00;;;;;;2613889;54;20434;-81
2023/05/03 13:00:09;;;;;;;15.93;15.13;;;18.70;1.00;;;;;;2615980;39;20672;-79
2023/05/03 13:02:44;;;;;;;16.17;15.17;;;18.70;1.00;;;;;;2612347;47;20427;-80
2023/05/03 13:05:11;;;;;;;15.30;14.30;;;18.80;1.00;;;;;;2615069;54;20399;-81
2023/05/03 13:10:59;;;;;;;16.50;15.60;;;18.10;1.00;;;;;;2616540;54;20506;-80
2023/05/03 13:14:21;;;;;;;16.87;15.87;;;18.40;1.00;;;;;;2615388;54;20423;-81
2023/05/03 13:20:11;;;;;;;17.20;16.00;;;18.30;1.00;;;;;;2615424;54;20355;-79
2023/05/03 13:25:58;;;;;;;15.73;14.93;;;19.40;1.00;;;;;;2614630;54;20394;-80
2023/05/03 13:31:46;;;;;;;16.10;14.97;;;18.40;1.00;;;;;;2614740;54;20130;-79
2023/05/03 13:37:34;;;;;;;15.40;14.60;;;18.80;1.00;;;;;;2614989;54;20150;-80
2023/05/03 13:43:23;;;;;;;17.73;16.63;;;18.60;1.00;;;;;;2615579;54;20398;-82
2023/05/03 13:49:18;;;;;;;17.47;16.27;;;18.80;1.00;;;;;;2614399;54;20427;-80
2023/05/03 13:55:06;;;;;;;17.03;15.90;;;18.70;1.00;;;;;;2613176;54;20407;-81
2023/05/03 13:57:49;;;;;;;17.50;16.10;;;19.30;1.00;;;;;;2614602;47;20557;-81
2023/05/03 14:00:16;;;;;;;17.60;16.70;;;19.80;1.00;;;;;;2612043;47;20415;-81
2023/05/03 14:06:04;;;;;;;18.20;17.00;;;19.40;1.00;;;;;;2612324;54;20359;-81
2023/05/03 14:11:51;;;;;;;19.43;18.00;;;19.80;1.00;;;;;;2613179;54;20624;-80
2023/05/03 14:17:39;;;;;;;17.23;16.33;;;18.70;1.00;;;;;;2612671;54;20198;-82
2023/05/03 14:23:27;;;;;;;19.03;17.63;;;18.00;1.00;;;;;;2610251;54;20193;-81
2023/05/03 14:29:15;;;;;;;18.63;17.60;;;19.00;1.00;;;;;;2612838;54;20226;-80
2023/05/03 14:35:03;;;;;;;19.77;18.00;;;18.80;1.00;;;;;;2611509;54;20134;-82
2023/05/03 14:40:54;;;;;;;17.70;16.70;;;18.90;1.00;;;;;;2614225;54;20391;-79
2023/05/03 14:46:42;;;;;;;18.43;17.13;;;18.80;1.00;;;;;;2614066;54;20535;-81
2023/05/03 14:52:30;;;;;;;18.70;17.60;;;18.70;1.00;;;;;;2613040;39;20773;-77
2023/05/03 14:58:18;;;;;;;18.40;17.30;;;18.40;1.00;;;;;;2612983;54;20683;-76
2023/05/03 15:04:06;;;;;;;18.57;17.47;;;19.00;1.00;;;;;;2614251;39;20831;-81
2023/05/03 15:09:54;;;;;;;18.13;17.03;;;18.50;1.00;;;;;;2614171;54;20122;-80
2023/05/03 15:15:42;;;;;;;19.60;18.47;;;18.70;1.00;;;;;;2615398;54;20130;-82
2023/05/03 15:27:50;;;;;;;18.37;17.20;;;18.90;1.00;;;;;;2615739;31;20850;-85
2023/05/03 15:33:42;;;;;;;19.50;18.10;;;18.00;1.00;;;;;;2618945;39;20943;-83
2023/05/03 15:39:30;;;;;;;18.70;17.33;;;18.20;1.00;;;;;;2622144;54;20479;-85
2023/05/03 15:45:19;;;;;;;18.97;17.70;;;17.90;1.00;;;;;;2620929;54;20122;-83
2023/05/03 15:51:07;;;;;;;18.47;16.70;;;18.30;1.00;;;;;;2621039;54;20949;-82
2023/05/03 15:56:55;;;;;;;18.57;17.27;;;18.60;1.00;;;;;;2622385;54;20125;-83
2023/05/03 16:02:43;;;;;;;17.50;16.50;;;18.20;1.00;;;;;;2622671;54;20407;-82
2023/05/03 16:08:31;;;;;;;17.50;16.57;;;18.30;1.00;;;;;;2620663;54;20134;-81
2023/05/03 16:14:19;;;;;;;17.80;16.60;;;18.80;1.00;;;;;;2622557;54;20723;-82
2023/05/03 16:20:09;;;;;;;17.20;16.20;;;19.00;1.00;;;;;;2623835;54;20661;-82
2023/05/03 16:25:57;;;;;;;17.33;16.30;;;19.30;1.00;;;;;;2615829;54;20456;-84
2023/05/03 16:31:45;;;;;;;18.70;17.27;;;19.50;1.00;;;;;;2621938;54;20123;-84
2023/05/03 16:37:36;;;;;;;19.53;17.70;;;19.00;1.00;;;;;;2623795;54;20392;-85
2023/05/03 16:43:24;;;;;;;18.93;17.27;;;19.00;1.00;;;;;;2625425;54;20448;-84
2023/05/03 16:49:12;;;;;;;17.07;16.17;;;18.20;1.00;;;;;;2624285;54;20391;-82
2023/05/03 16:55:00;;;;;;;17.53;16.27;;;17.70;1.00;;;;;;2624269;46;20746;-83
2023/05/03 17:00:49;;;;;;;18.17;16.53;;;17.40;1.00;;;;;;2622912;54;20122;-85
2023/05/03 17:06:38;;;;;;;17.63;16.30;;;16.80;1.00;;;;;;2623742;54;20419;-83
2023/05/03 17:12:26;;;;;;;19.10;17.90;;;16.60;1.00;;;;;;2620109;54;20989;-81
2023/05/03 17:18:14;;;;;;;19.20;17.90;;;16.40;1.00;;;;;;2622954;54;20391;-83
2023/05/03 17:24:03;;;;;;;17.13;16.17;;;16.20;1.00;;;;;;2623060;54;20130;-84
2023/05/03 17:29:51;;;;;;;17.57;16.47;;;16.00;1.00;;;;;;2623341;54;20398;-84
2023/05/03 17:35:39;;;;;;;18.27;16.57;;;15.90;1.00;;;;;;2623621;54;20131;-82
2023/05/03 17:41:29;;;;;;;19.13;17.80;;;15.80;1.00;;;;;;2622303;39;20685;-82
2023/05/03 17:47:16;;;;;;;18.83;17.63;;;15.80;1.00;;;;;;2624533;54;20394;-83
2023/05/03 17:53:04;;;;;;;18.20;16.80;;;15.50;1.00;;;;;;2623746;54;20134;-84
2023/05/03 17:58:54;;;;;;;17.00;16.10;;;15.40;1.00;;;;;;2622158;54;20412;-83
2023/05/03 18:04:42;;;;;;;16.93;15.93;;;15.40;1.00;;;;;;2622611;54;20388;-83
2023/05/03 18:10:30;;;;;;;17.60;16.47;;;15.20;1.00;;;;;;2622383;54;20137;-83
2023/05/03 18:13:16;;;;;;;16.40;15.40;;;15.10;1.00;;;;;;2620945;54;20419;-83
2023/05/03 18:15:42;;;;;;;17.93;16.73;;;15.00;1.00;;;;;;2621207;39;20579;-82
2023/05/03 18:21:30;;;;;;;17.07;16.07;;;14.80;1.00;;;;;;2619951;54;20121;-83
2023/05/03 18:27:21;;;;;;;16.47;15.50;;;14.60;1.00;;;;;;2620235;39;20198;-83
2023/05/03 18:33:12;;;;;;;15.80;15.00;;;14.50;1.00;;;;;;2620884;54;20516;-86
2023/05/03 18:39:00;;;;;;;15.93;15.07;;;14.30;1.00;;;;;;2620504;54;20411;-81
2023/05/03 18:44:49;;;;;;;15.50;14.60;;;14.20;1.00;;;;;;2620872;54;20669;-81
2023/05/03 18:50:38;;;;;;;16.87;15.97;;;13.90;1.00;;;;;;2620119;54;20375;-82
2023/05/03 18:56:29;;;;;;;19.43;17.80;;;13.60;1.00;;;;;;2622306;54;20392;-80
2023/05/03 19:02:16;;;;;;;18.93;17.57;;;13.60;1.00;;;;;;2627282;54;20412;-81
2023/05/03 19:08:04;;;;;;;18.13;16.83;;;13.50;1.00;;;;;;2627530;54;20150;-81
2023/05/03 19:17:46;;;;;;;19.50;17.80;;;13.10;1.00;;;;;;2629099;54;20407;-82
2023/05/03 19:23:34;;;;;;;19.10;17.77;;;13.10;1.00;;;;;;2629117;54;20422;-82
2023/05/03 19:29:22;;;;;;;18.90;17.17;;;12.90;1.00;;;;;;2629590;54;20142;-82
2023/05/03 19:35:11;;;;;;;18.13;16.63;;;12.70;1.00;;;;;;2628448;54;20134;-84
2023/05/03 19:41:04;;;;;;;19.00;17.67;;;12.60;1.00;;;;;;2623409;54;20403;-85
2023/05/03 19:46:52;;;;;;;19.30;17.70;;;12.40;1.00;;;;;;2623106;54;20443;-83
2023/05/03 19:52:41;;;;;;;20.03;18.00;;;12.40;1.00;;;;;;2615857;54;20701;-81
2023/05/03 19:58:29;;;;;;;19.70;18.30;;;12.20;1.00;;;;;;2616584;54;20400;-81
2023/05/03 20:04:16;;;;;;;19.77;18.13;;;12.20;1.00;;;;;;2616578;54;20391;-83
2023/05/03 20:10:06;;;;;;;21.37;19.37;;;12.10;1.00;;;;;;2616747;54;20126;-81
2023/05/03 20:13:15;;;;;;;19.87;18.40;;;11.90;4.00;;;;;;2616099;54;20424;-80
2023/05/03 20:15:41;;;;;;;18.90;17.50;;;11.90;4.70;;;;;;2614943;46;20450;-81
2023/05/03 20:21:31;;;;;;;19.87;18.27;;;11.80;7.80;;;;;;2616655;54;20387;-81
2023/05/03 20:27:19;;;;;;;20.00;18.30;;;11.50;11.30;;;;;;2616760;39;20809;-81
2023/05/03 20:33:08;;;;;;;19.27;17.77;;;11.30;14.40;;;;;;2616059;54;20452;-81
2023/05/03 20:38:56;;;;;;;19.57;18.20;;;11.30;17.60;;;;;;2615323;39;20749;-81
2023/05/03 20:44:44;;;;;;;20.07;18.57;;;11.20;19.90;;;;;;2615013;54;20134;-82
2023/05/03 20:50:31;;;;;;;19.77;18.27;;;11.20;21.40;;;;;;2614550;54;20162;-80
2023/05/03 20:56:20;;;;;;;21.73;19.93;;;11.00;24.20;;;;;;2616329;39;20523;-83
2023/05/03 21:02:09;;;;;;;19.93;18.43;;;10.90;27.90;;;;;;2618549;54;20395;-82
2023/05/03 21:07:59;;;;;;;19.43;17.97;;;10.60;37.50;;;;;;2620538;54;20376;-82
2023/05/03 21:17:44;;;;;;;20.20;18.90;;;10.60;39.40;;;;;;2619841;54;21167;-81
2023/05/03 21:23:31;;;;;;;20.03;18.60;;;10.40;43.00;;;;;;2618573;39;20785;-82
2023/05/03 21:29:19;;;;;;;20.00;18.60;;;10.30;49.90;;;;;;2615762;54;20135;-83
2023/05/03 21:35:08;;;;;;;21.40;19.40;;;10.20;51.90;;;;;;2613386;54;20174;-81
2023/05/03 21:41:06;;;;;;;20.27;18.43;;;10.10;56.80;;;;;;2614728;54;20424;-79
2023/05/03 21:46:53;;;;;;;20.73;18.20;;;10.10;58.90;;;;;;2613766;39;20914;-80
2023/05/03 21:52:41;;;;;;;19.67;18.17;;;9.90;65.60;;;;;;2614009;54;20134;-81
2023/05/03 21:58:29;;;;;;;20.03;18.37;;;9.90;66.00;;;;;;2614125;54;20395;-80
2023/05/03 22:04:17;;;;;;;20.43;18.53;;;9.70;72.20;;;;;;2611418;54;20405;-80
2023/05/03 22:10:05;;;;;;;19.37;17.73;;;9.50;88.40;;;;;;2612998;54;20134;-80
2023/05/03 22:13:16;;;;;;;18.10;16.80;;;9.40;91.70;;;;;;2610930;54;21423;-80
2023/05/03 22:15:45;;;;;;;19.47;18.03;;;9.40;93.20;;;;;;2611263;54;20426;-80
2023/05/03 22:21:34;;;;;;;19.47;17.87;;;9.30;95.60;;;;;;2611698;54;20479;-80
2023/05/03 22:27:23;;;;;;;19.33;17.63;;;9.30;94.80;;;;;;2612729;54;20406;-80
2023/05/03 22:33:11;;;;;;;22.03;20.37;;;9.40;89.30;;;;;;2612162;54;21082;-80
2023/05/03 22:39:04;;;;;;;18.40;16.80;;;9.50;84.10;;;;;;2612105;54;20130;-82
2023/05/03 22:44:53;;;;;;;16.90;15.60;;;9.40;80.60;;;;;;2613919;39;20974;-81
2023/05/03 22:50:40;;;;;;;17.83;16.53;;;9.40;81.20;;;;;;2613020;54;20465;-81
2023/05/03 22:56:28;;;;;;;16.60;15.43;;;9.30;85.60;;;;;;2611139;54;20135;-80
2023/05/03 23:02:16;;;;;;;17.83;16.13;;;9.40;77.20;;;;;;2612437;54;20162;-80
2023/05/03 23:08:04;;;;;;;18.60;17.10;;;9.40;77.10;;;;;;2611534;54;20945;-80
2023/05/03 23:17:42;;;;;;;18.70;17.20;;;9.20;85.20;;;;;;2614912;46;20410;-80
2023/05/03 23:23:30;;;;;;;18.73;17.10;;;9.30;83.60;;;;;;2613811;39;20746;-80
2023/05/03 23:29:18;;;;;;;17.97;16.50;;;9.10;88.80;;;;;;2612774;54;20383;-79
2023/05/03 23:35:07;;;;;;;22.13;16.50;;;9.00;92.60;;;;;;2612493;54;20158;-81
2023/05/03 23:38:10;;;;;;;18.33;16.93;;;9.00;95.50;;;;;;2613618;47;20420;-80
2023/05/03 23:40:36;;;;;;;16.53;15.17;;;9.00;96.40;;;;;;2613796;54;20435;-81
2023/05/03 23:46:25;;;;;;;17.93;16.63;;;8.80;98.70;;;;;;2614101;54;20146;-81
2023/05/03 23:52:15;;;;;;;18.20;16.40;;;8.60;99.90;;;;;;2612704;54;20969;-81
2023/05/03 23:58:03;;;;;;;17.33;16.03;;;8.40;99.90;;;;;;2612401;54;20399;-81
